createdAt,value
2023-08-07T00:03:39.905Z,15.77
2023-08-07T00:08:41.742Z,15.78
2023-08-07T00:13:43.598Z,15.77
2023-08-07T00:18:45.493Z,15.78
2023-08-07T00:23:47.429Z,15.75
2023-08-07T00:28:49.450Z,15.73
2023-08-07T00:33:55.192Z,15.67
2023-08-07T00:38:57.148Z,15.67
2023-08-07T00:43:59.204Z,15.69
2023-08-07T00:49:01.131Z,15.72
2023-08-07T00:54:05.257Z,15.70
2023-08-07T00:59:07.711Z,15.61
2023-08-07T01:04:09.546Z,15.58
2023-08-07T01:09:11.474Z,15.55
2023-08-07T01:14:19.576Z,15.50
2023-08-07T01:19:28.444Z,15.49
2023-08-07T01:24:30.435Z,15.48
2023-08-07T01:29:41.741Z,15.46
2023-08-07T01:34:45.396Z,15.48
2023-08-07T01:39:48.444Z,15.48
2023-08-07T01:44:51.356Z,15.49
2023-08-07T01:49:53.460Z,15.45
2023-08-07T01:54:55.397Z,15.52
2023-08-07T01:59:57.294Z,15.58
2023-08-07T02:04:59.190Z,15.64
2023-08-07T02:10:01.130Z,15.64
2023-08-07T02:15:03.437Z,15.66
2023-08-07T02:20:06.720Z,15.71
2023-08-07T02:25:09.051Z,15.73
2023-08-07T02:30:13.279Z,15.75
2023-08-07T02:35:15.203Z,15.76
2023-08-07T02:40:18.859Z,15.76
2023-08-07T02:45:20.700Z,15.77
2023-08-07T02:50:22.570Z,15.80
2023-08-07T02:55:24.436Z,15.81
2023-08-07T03:00:26.390Z,15.78
2023-08-07T03:05:28.396Z,15.79
2023-08-07T03:10:30.388Z,15.78
2023-08-07T03:15:32.252Z,15.81
2023-08-07T03:20:34.073Z,15.86
2023-08-07T03:25:35.934Z,15.90
2023-08-07T03:30:39.349Z,15.88
2023-08-07T03:35:42.428Z,15.84
2023-08-07T03:40:45.490Z,15.76
2023-08-07T03:45:47.420Z,15.77
2023-08-07T03:50:49.809Z,15.84
2023-08-07T03:55:53.102Z,15.88
2023-08-07T04:07:10.992Z,15.81
2023-08-07T04:12:13.009Z,15.86
2023-08-07T04:17:14.838Z,15.91
2023-08-07T04:22:16.641Z,15.91
2023-08-07T04:27:18.463Z,15.92
2023-08-07T04:32:20.371Z,15.96
2023-08-07T04:37:22.536Z,15.99
2023-08-07T04:42:24.594Z,16.03
2023-08-07T04:47:26.839Z,16.00
2023-08-07T04:52:29.064Z,15.97
2023-08-07T04:57:30.867Z,15.98
2023-08-07T05:02:32.777Z,15.96
2023-08-07T05:07:35.911Z,15.95
2023-08-07T05:12:37.778Z,16.00
2023-08-07T05:17:39.730Z,16.14
2023-08-07T05:22:41.547Z,16.26
2023-08-07T05:27:44.394Z,16.40
2023-08-07T05:32:46.322Z,16.55
2023-08-07T05:37:48.252Z,16.75
2023-08-07T05:42:50.868Z,16.99
2023-08-07T05:47:52.745Z,17.22
2023-08-07T05:52:55.047Z,17.34
2023-08-07T05:57:56.838Z,17.43
2023-08-07T06:02:58.778Z,17.48
2023-08-07T06:08:00.616Z,17.42
2023-08-07T06:13:02.508Z,17.40
2023-08-07T06:18:04.530Z,17.35
2023-08-07T06:23:06.532Z,17.34
2023-08-07T06:28:08.377Z,17.39
2023-08-07T06:33:11.713Z,17.35
2023-08-07T06:38:15.756Z,17.30
2023-08-07T06:43:18.034Z,17.18
2023-08-07T06:48:19.933Z,17.09
2023-08-07T06:53:21.901Z,16.96
2023-08-07T06:58:23.816Z,16.80
2023-08-07T07:03:25.843Z,16.75
2023-08-07T07:08:27.748Z,16.77
2023-08-07T07:13:30.976Z,16.70
2023-08-07T07:18:33.056Z,16.69
2023-08-07T07:23:52.826Z,16.65
2023-08-07T07:28:54.874Z,16.65
2023-08-07T07:33:56.902Z,16.80
2023-08-07T07:38:58.842Z,16.93
2023-08-07T07:44:05.005Z,17.01
2023-08-07T07:49:08.301Z,17.03
2023-08-07T07:54:15.190Z,17.03
2023-08-07T07:59:17.818Z,17.13
2023-08-07T08:04:20.645Z,17.26
2023-08-07T08:09:22.678Z,17.32
2023-08-07T08:14:24.577Z,17.45
2023-08-07T08:19:29.066Z,17.65
2023-08-07T08:24:36.095Z,17.91
2023-08-07T08:29:37.952Z,18.08
2023-08-07T08:34:39.814Z,18.25
2023-08-07T08:39:41.642Z,18.36
2023-08-07T08:44:48.109Z,18.47
2023-08-07T08:50:05.832Z,18.53
2023-08-07T08:55:09.195Z,18.54
2023-08-07T09:00:24.856Z,18.55
2023-08-07T09:11:05.523Z,18.41
2023-08-07T09:16:30.100Z,18.54
2023-08-07T09:21:37.469Z,18.50
2023-08-07T09:26:44.938Z,18.50
2023-08-07T09:31:47.627Z,18.63
2023-08-07T09:36:52.175Z,18.75
2023-08-07T09:41:54.539Z,18.86
2023-08-07T09:46:56.704Z,18.94
2023-08-07T09:51:58.792Z,19.06
2023-08-07T09:57:03.328Z,19.10
2023-08-07T10:02:05.953Z,18.95
2023-08-07T10:07:08.052Z,18.41
2023-08-07T10:12:10.083Z,17.75
2023-08-07T10:17:12.295Z,16.90
2023-08-07T10:22:17.662Z,16.23
2023-08-07T10:27:24.712Z,15.89
2023-08-07T10:32:28.118Z,15.58
2023-08-07T10:37:42.213Z,15.44
2023-08-07T10:42:54.289Z,15.46
2023-08-07T10:48:10.475Z,15.62
2023-08-07T10:53:21.221Z,15.86
2023-08-07T10:58:30.454Z,16.09
2023-08-07T11:03:37.596Z,16.34
2023-08-07T11:08:40.082Z,16.63
2023-08-07T11:13:42.071Z,16.87
2023-08-07T11:18:46.798Z,16.98
2023-08-07T11:23:48.683Z,16.82
2023-08-07T11:28:50.749Z,16.96
2023-08-07T11:33:53.972Z,17.13
2023-08-07T11:38:56.401Z,17.26
2023-08-07T11:43:58.203Z,17.49
2023-08-07T11:49:00.648Z,17.84
2023-08-07T11:54:03.957Z,18.41
2023-08-07T11:59:07.448Z,18.88
2023-08-07T12:04:11.083Z,19.27
2023-08-07T12:09:14.395Z,19.48
2023-08-07T12:14:18.384Z,19.45
2023-08-07T12:19:20.353Z,19.71
2023-08-07T12:24:23.908Z,19.99
2023-08-07T12:29:29.889Z,20.12
2023-08-07T12:44:41.643Z,21.52
2023-08-07T12:49:43.582Z,21.76
2023-08-07T12:54:45.356Z,21.81
2023-08-07T12:59:47.297Z,21.79
2023-08-07T13:04:49.133Z,21.44
2023-08-07T13:09:52.227Z,20.89
2023-08-07T13:14:54.328Z,20.72
2023-08-07T13:19:56.143Z,20.67
2023-08-07T13:24:58.110Z,20.75
2023-08-07T13:30:00.059Z,20.85
2023-08-07T13:35:02.164Z,20.85
2023-08-07T13:40:05.806Z,20.82
2023-08-07T13:45:08.798Z,20.60
2023-08-07T13:50:14.176Z,20.97
2023-08-07T13:55:16.250Z,21.47
2023-08-07T14:00:19.024Z,21.94
2023-08-07T14:05:21.018Z,22.49
2023-08-07T14:10:22.877Z,22.77
2023-08-07T14:15:26.074Z,23.37
2023-08-07T14:20:28.265Z,23.69
2023-08-07T14:25:30.344Z,23.57
2023-08-07T14:30:32.154Z,22.80
2023-08-07T14:35:34.060Z,21.96
2023-08-07T14:40:39.290Z,21.10
2023-08-07T14:45:41.551Z,20.45
2023-08-07T14:50:43.599Z,19.76
2023-08-07T14:55:46.498Z,19.18
2023-08-07T15:00:48.385Z,18.54
2023-08-07T15:05:50.271Z,17.96
2023-08-07T15:10:54.321Z,17.73
2023-08-07T15:15:56.386Z,17.75
2023-08-07T15:21:01.845Z,18.00
2023-08-07T15:26:03.924Z,18.60
2023-08-07T15:31:05.819Z,19.33
2023-08-07T15:36:07.741Z,20.00
2023-08-07T15:41:12.264Z,20.25
2023-08-07T15:46:14.241Z,20.16
2023-08-07T15:51:16.164Z,20.01
2023-08-07T15:56:18.024Z,20.29
2023-08-07T16:01:20.018Z,20.74
2023-08-07T16:06:22.860Z,20.60
2023-08-07T16:11:24.707Z,19.94
2023-08-07T16:16:26.584Z,19.37
2023-08-07T16:21:28.543Z,19.02
2023-08-07T16:26:30.495Z,18.67
2023-08-07T16:31:32.319Z,18.37
2023-08-07T16:36:34.327Z,18.13
2023-08-07T16:41:36.363Z,17.82
2023-08-07T16:46:38.386Z,17.68
2023-08-07T16:51:40.293Z,17.74
2023-08-07T16:56:42.245Z,17.79
2023-08-07T17:01:44.154Z,17.91
2023-08-07T17:06:46.040Z,18.84
2023-08-07T17:11:47.865Z,20.64
2023-08-07T17:16:49.752Z,21.51
2023-08-07T17:21:52.148Z,21.69
2023-08-07T17:26:55.608Z,21.50
2023-08-07T17:31:59.261Z,21.08
2023-08-07T17:37:03.032Z,20.58
2023-08-07T17:42:05.611Z,19.67
2023-08-07T17:47:11.745Z,18.83
2023-08-07T17:52:13.956Z,18.23
2023-08-07T17:57:16.036Z,17.76
2023-08-07T18:02:17.826Z,17.39
2023-08-07T18:07:19.721Z,17.07
2023-08-07T18:12:21.575Z,16.78
2023-08-07T18:17:24.548Z,16.62
2023-08-07T18:22:26.990Z,16.46
2023-08-07T18:27:28.979Z,16.37
2023-08-07T18:32:31.989Z,16.25
2023-08-07T18:37:34.027Z,16.15
2023-08-07T18:42:36.003Z,16.14
2023-08-07T18:47:39.094Z,16.09
2023-08-07T18:52:41.003Z,16.07
2023-08-07T18:57:43.199Z,16.06
2023-08-07T19:02:45.983Z,16.07
2023-08-07T19:07:47.890Z,16.05
2023-08-07T19:12:49.769Z,16.03
2023-08-07T19:17:52.050Z,16.05
2023-08-07T19:22:53.984Z,16.06
2023-08-07T19:27:55.834Z,16.05
2023-08-07T19:32:59.696Z,16.05
2023-08-07T19:38:02.098Z,16.03
2023-08-07T19:43:04.184Z,15.98
2023-08-07T19:48:06.542Z,15.92
2023-08-07T19:53:08.602Z,15.91
2023-08-07T19:58:10.480Z,15.90
2023-08-07T20:03:14.988Z,15.90
2023-08-07T20:08:17.237Z,15.88
2023-08-07T20:13:20.643Z,15.85
2023-08-07T20:18:22.540Z,15.83
2023-08-07T20:23:26.142Z,15.81
2023-08-07T20:28:28.055Z,15.82
2023-08-07T20:33:29.979Z,15.78
2023-08-07T20:38:32.011Z,15.76
2023-08-07T20:43:33.974Z,15.78
2023-08-07T20:48:35.774Z,15.75
2023-08-07T20:53:38.432Z,15.74
2023-08-07T20:58:40.331Z,15.76
2023-08-07T21:03:42.191Z,15.72
2023-08-07T21:08:44.179Z,15.66
2023-08-07T21:13:45.965Z,15.66
2023-08-07T21:18:48.131Z,15.57
2023-08-07T21:23:49.946Z,15.56
2023-08-07T21:28:52.525Z,15.54
2023-08-07T21:33:55.864Z,15.54
2023-08-07T21:38:59.077Z,15.53
2023-08-07T21:44:01.012Z,15.53
2023-08-07T21:49:02.805Z,15.51
2023-08-07T21:54:04.751Z,15.45
2023-08-07T21:59:06.634Z,15.45
2023-08-07T22:04:11.222Z,15.46
2023-08-07T22:09:13.156Z,15.44
2023-08-07T22:14:15.052Z,15.40
2023-08-07T22:19:17.064Z,15.35
2023-08-07T22:24:19.111Z,15.36
2023-08-07T22:29:20.906Z,15.34
2023-08-07T22:34:23.064Z,15.32
2023-08-07T22:39:25.201Z,15.36
2023-08-07T22:44:27.214Z,15.36
2023-08-07T22:49:30.871Z,15.32
2023-08-07T22:54:32.938Z,15.27
2023-08-07T22:59:34.795Z,15.18
2023-08-07T23:04:36.769Z,15.17
2023-08-07T23:09:40.698Z,15.11
2023-08-07T23:14:42.573Z,15.06
2023-08-07T23:19:47.480Z,15.01
2023-08-07T23:24:49.500Z,14.97
2023-08-07T23:29:51.912Z,14.99
2023-08-07T23:34:54.015Z,14.99
2023-08-07T23:39:55.859Z,14.98
2023-08-07T23:45:04.303Z,14.97
2023-08-07T23:50:07.550Z,14.95
2023-08-07T23:55:09.745Z,14.94
